createdAt,value
2018-01-25T00:03:13.596Z,3.00
2018-01-25T00:05:42.182Z,2.80
2018-01-25T00:08:09.773Z,2.53
2018-01-25T00:10:38.089Z,2.90
2018-01-25T00:13:05.678Z,2.80
2018-01-25T00:15:33.255Z,2.60
2018-01-25T00:18:00.789Z,1.97
2018-01-25T00:20:28.358Z,3.00
2018-01-25T00:22:55.897Z,1.83
2018-01-25T00:25:23.471Z,2.30
2018-01-25T00:27:51.010Z,2.20
2018-01-25T00:30:18.544Z,2.50
2018-01-25T00:32:46.124Z,2.70
2018-01-25T00:35:13.845Z,3.00
2018-01-25T00:37:42.189Z,2.70
2018-01-25T00:40:09.740Z,2.50
2018-01-25T00:42:37.281Z,3.30
2018-01-25T00:45:04.855Z,3.00
2018-01-25T00:47:32.409Z,3.30
2018-01-25T00:49:59.968Z,2.07
2018-01-25T00:52:27.499Z,3.10
2018-01-25T00:54:55.095Z,3.20
2018-01-25T00:57:22.632Z,3.10
2018-01-25T00:59:50.612Z,2.80
2018-01-25T01:02:18.141Z,5.37
2018-01-25T01:04:45.719Z,4.87
2018-01-25T01:07:13.289Z,4.43
2018-01-25T01:09:41.009Z,3.43
2018-01-25T01:12:08.564Z,4.90
2018-01-25T01:14:36.863Z,3.43
2018-01-25T01:17:04.826Z,4.20
2018-01-25T01:19:32.348Z,5.40
2018-01-25T01:22:00.170Z,7.07
2018-01-25T01:24:27.732Z,9.93
2018-01-25T01:26:55.269Z,9.93
2018-01-25T01:29:22.841Z,9.03
2018-01-25T01:31:50.376Z,9.20
2018-01-25T01:34:17.952Z,9.70
2018-01-25T01:36:45.541Z,11.60
2018-01-25T01:39:13.123Z,10.57
2018-01-25T01:41:40.651Z,9.37
2018-01-25T01:44:08.181Z,9.33
2018-01-25T01:46:35.958Z,9.50
2018-01-25T01:49:03.575Z,8.97
2018-01-25T01:51:31.305Z,9.33
2018-01-25T01:53:58.852Z,10.37
2018-01-25T01:56:26.423Z,10.00
2018-01-25T01:58:53.969Z,10.20
2018-01-25T02:01:21.801Z,11.53
2018-01-25T02:03:50.236Z,10.40
2018-01-25T02:06:17.802Z,9.50
2018-01-25T02:08:45.368Z,9.03
2018-01-25T02:11:12.903Z,11.13
2018-01-25T02:13:40.476Z,11.47
2018-01-25T02:16:08.075Z,10.80
2018-01-25T02:18:36.003Z,9.60
2018-01-25T02:21:03.601Z,9.57
2018-01-25T02:23:31.131Z,10.20
2018-01-25T02:25:58.715Z,9.80
2018-01-25T02:28:26.242Z,8.67
2018-01-25T02:30:53.808Z,8.47
2018-01-25T02:33:21.347Z,8.23
2018-01-25T02:35:49.210Z,8.00
2018-01-25T02:38:16.783Z,7.90
2018-01-25T02:40:44.328Z,9.63
2018-01-25T02:43:11.903Z,10.13
2018-01-25T02:45:39.454Z,10.07
2018-01-25T02:48:07.103Z,9.07
2018-01-25T02:50:34.636Z,7.60
2018-01-25T02:53:02.993Z,7.43
2018-01-25T02:55:30.527Z,8.23
2018-01-25T02:57:58.390Z,9.37
2018-01-25T03:00:25.926Z,9.03
2018-01-25T03:02:53.460Z,9.13
2018-01-25T03:05:21.169Z,9.23
2018-01-25T03:07:48.708Z,7.87
2018-01-25T03:10:16.540Z,8.47
2018-01-25T03:12:44.967Z,7.20
2018-01-25T03:15:13.304Z,7.87
2018-01-25T03:17:41.626Z,8.30
2018-01-25T03:20:09.190Z,9.50
2018-01-25T03:22:36.776Z,8.67
2018-01-25T03:25:04.304Z,9.07
2018-01-25T03:27:31.877Z,11.07
2018-01-25T03:29:59.411Z,6.63
2018-01-25T03:32:27.296Z,6.70
2018-01-25T03:34:54.826Z,5.27
2018-01-25T03:37:22.369Z,3.97
2018-01-25T03:39:49.940Z,3.87
2018-01-25T03:42:17.457Z,4.13
2018-01-25T03:44:45.033Z,3.13
2018-01-25T03:47:13.321Z,3.40
2018-01-25T03:49:42.132Z,3.30
2018-01-25T03:52:09.669Z,2.67
2018-01-25T03:54:38.111Z,2.47
2018-01-25T03:57:05.700Z,2.47
2018-01-25T03:59:33.229Z,2.50
2018-01-25T04:02:01.278Z,2.20
2018-01-25T04:04:28.810Z,2.63
2018-01-25T04:06:56.363Z,2.77
2018-01-25T04:09:23.951Z,2.37
2018-01-25T04:11:51.484Z,2.47
2018-01-25T04:14:19.085Z,2.30
2018-01-25T04:16:46.618Z,2.50
2018-01-25T04:19:14.504Z,2.40
2018-01-25T04:21:42.040Z,1.90
2018-01-25T04:24:09.730Z,2.03
2018-01-25T04:26:37.301Z,1.97
2018-01-25T04:29:04.837Z,1.90
2018-01-25T04:31:32.433Z,2.50
2018-01-25T04:33:59.976Z,1.73
2018-01-25T04:36:27.548Z,2.00
2018-01-25T04:38:55.090Z,2.53
2018-01-25T04:41:23.041Z,2.20
2018-01-25T04:43:50.767Z,1.83
2018-01-25T04:46:18.297Z,2.60
2018-01-25T04:48:45.871Z,2.37
2018-01-25T04:51:13.467Z,2.00
2018-01-25T04:53:41.052Z,2.10
2018-01-25T04:56:08.706Z,2.33
2018-01-25T04:58:36.740Z,3.00
2018-01-25T05:01:04.269Z,2.20
2018-01-25T05:03:31.807Z,2.40
2018-01-25T05:05:59.365Z,2.20
2018-01-25T05:08:26.895Z,2.20
2018-01-25T05:10:54.496Z,2.37
2018-01-25T05:13:22.026Z,2.47
2018-01-25T05:15:50.002Z,2.17
2018-01-25T05:18:17.528Z,1.90
2018-01-25T05:20:45.856Z,2.33
2018-01-25T05:23:13.421Z,2.10
2018-01-25T05:25:40.986Z,2.30
2018-01-25T05:28:08.552Z,2.70
2018-01-25T05:30:36.073Z,2.17
2018-01-25T05:33:03.936Z,1.77
2018-01-25T05:35:31.482Z,2.30
2018-01-25T05:37:59.008Z,2.60
2018-01-25T05:40:27.493Z,2.07
2018-01-25T05:42:56.108Z,2.60
2018-01-25T05:45:23.691Z,2.67
2018-01-25T05:47:51.242Z,2.20
2018-01-25T05:50:19.360Z,2.00
2018-01-25T05:52:47.652Z,2.10
2018-01-25T05:55:15.945Z,2.43
2018-01-25T05:57:43.620Z,2.30
2018-01-25T06:00:11.185Z,2.20
2018-01-25T06:02:38.773Z,2.37
2018-01-25T06:05:06.356Z,2.70
2018-01-25T06:07:34.286Z,3.03
2018-01-25T06:10:02.052Z,2.60
2018-01-25T06:12:29.592Z,2.20
2018-01-25T06:14:57.164Z,2.60
2018-01-25T06:17:24.704Z,2.30
2018-01-25T06:19:52.266Z,2.90
2018-01-25T06:22:19.795Z,2.83
2018-01-25T06:24:47.656Z,2.37
2018-01-25T06:27:15.182Z,2.00
2018-01-25T06:29:42.708Z,2.47
2018-01-25T06:32:10.269Z,2.50
2018-01-25T06:34:37.796Z,2.20
2018-01-25T06:37:06.139Z,2.57
2018-01-25T06:39:33.695Z,2.63
2018-01-25T06:42:01.746Z,3.07
2018-01-25T06:44:29.272Z,3.53
2018-01-25T06:46:56.816Z,3.87
2018-01-25T06:49:24.384Z,3.50
2018-01-25T06:51:52.688Z,3.13
2018-01-25T06:54:20.257Z,2.83
2018-01-25T06:56:47.976Z,3.30
2018-01-25T06:59:16.616Z,2.97
2018-01-25T07:01:44.160Z,2.90
2018-01-25T07:04:11.702Z,2.20
2018-01-25T07:06:39.259Z,2.53
2018-01-25T07:09:06.789Z,2.50
2018-01-25T07:11:34.376Z,2.70
2018-01-25T07:14:01.916Z,2.50
2018-01-25T07:16:29.676Z,2.60
2018-01-25T07:18:58.294Z,2.63
2018-01-25T07:21:25.831Z,2.87
2018-01-25T07:23:54.156Z,2.60
2018-01-25T07:26:21.687Z,3.10
2018-01-25T07:28:49.577Z,3.00
2018-01-25T07:31:17.176Z,2.23
2018-01-25T07:33:47.019Z,3.20
2018-01-25T07:36:14.607Z,4.00
2018-01-25T07:38:42.140Z,2.93
2018-01-25T07:41:09.783Z,2.67
2018-01-25T07:43:37.432Z,2.90
2018-01-25T07:46:05.721Z,2.60
2018-01-25T07:48:33.393Z,2.30
2018-01-25T07:51:00.940Z,2.53
2018-01-25T07:53:29.386Z,2.70
2018-01-25T07:55:57.453Z,2.33
2018-01-25T07:58:25.784Z,2.10
2018-01-25T08:00:54.009Z,2.33
2018-01-25T08:03:21.966Z,1.93
2018-01-25T08:05:49.516Z,2.13
2018-01-25T08:08:17.133Z,1.60
2018-01-25T08:10:45.747Z,2.80
2018-01-25T08:13:33.333Z,2.50
2018-01-25T08:16:06.434Z,2.33
2018-01-25T08:18:34.358Z,2.03
2018-01-25T08:21:02.263Z,2.70
2018-01-25T08:23:30.564Z,2.73
2018-01-25T08:25:58.174Z,3.03
2018-01-25T08:28:25.716Z,2.67
2018-01-25T08:30:53.304Z,2.70
2018-01-25T08:33:20.848Z,2.80
2018-01-25T08:35:48.680Z,2.97
2018-01-25T08:38:16.313Z,2.70
2018-01-25T08:40:44.812Z,2.60
2018-01-25T08:43:12.474Z,2.43
2018-01-25T08:45:40.057Z,2.67
2018-01-25T08:48:07.817Z,2.97
2018-01-25T08:50:35.513Z,2.67
2018-01-25T08:53:03.097Z,3.23
2018-01-25T08:55:31.594Z,2.80
2018-01-25T08:58:00.223Z,3.07
2018-01-25T09:00:27.760Z,3.20
2018-01-25T09:02:56.202Z,3.10
2018-01-25T09:05:24.764Z,3.00
2018-01-25T09:07:52.310Z,2.60
2018-01-25T09:10:20.036Z,2.30
2018-01-25T09:12:47.591Z,2.70
2018-01-25T09:15:15.854Z,2.90
2018-01-25T09:17:43.621Z,3.10
2018-01-25T09:20:11.166Z,2.73
2018-01-25T09:22:38.778Z,2.87
2018-01-25T09:25:06.349Z,2.83
2018-01-25T09:27:33.928Z,3.43
2018-01-25T09:30:01.473Z,2.77
2018-01-25T09:32:29.033Z,3.20
2018-01-25T09:34:56.623Z,2.90
2018-01-25T09:37:24.148Z,2.80
2018-01-25T09:39:51.749Z,3.07
2018-01-25T09:42:19.440Z,2.47
2018-01-25T09:44:47.116Z,2.77
2018-01-25T09:47:14.848Z,2.70
2018-01-25T09:49:43.654Z,3.40
2018-01-25T09:52:11.228Z,3.10
2018-01-25T09:54:38.778Z,3.67
2018-01-25T09:57:07.234Z,3.50
2018-01-25T09:59:34.775Z,2.90
2018-01-25T10:02:03.774Z,3.33
2018-01-25T10:04:31.306Z,4.20
2018-01-25T10:06:58.828Z,3.20
2018-01-25T10:09:26.394Z,2.90
2018-01-25T10:11:54.759Z,2.53
2018-01-25T10:14:22.643Z,3.67
2018-01-25T10:16:50.097Z,3.10
2018-01-25T10:19:18.072Z,2.77
2018-01-25T10:21:45.600Z,3.40
2018-01-25T10:24:13.170Z,3.30
2018-01-25T10:26:40.994Z,3.20
2018-01-25T10:29:08.567Z,2.80
2018-01-25T10:31:36.955Z,3.40
2018-01-25T10:34:04.492Z,3.03
2018-01-25T10:36:32.339Z,3.37
2018-01-25T10:38:59.878Z,3.43
2018-01-25T10:41:27.853Z,2.67
2018-01-25T10:43:55.391Z,2.80
2018-01-25T10:46:23.849Z,3.07
2018-01-25T10:48:51.486Z,2.80
2018-01-25T10:51:19.025Z,3.27
2018-01-25T10:53:47.824Z,3.17
2018-01-25T10:56:15.374Z,3.30
2018-01-25T10:58:43.339Z,3.60
2018-01-25T11:01:16.538Z,3.30
2018-01-25T11:03:44.459Z,3.30
2018-01-25T11:06:12.030Z,3.10
2018-01-25T11:08:39.585Z,2.90
2018-01-25T11:11:07.144Z,2.37
2018-01-25T11:13:34.697Z,3.60
2018-01-25T11:16:02.288Z,3.57
2018-01-25T11:18:29.823Z,3.03
2018-01-25T11:20:57.815Z,3.20
2018-01-25T11:23:25.350Z,3.20
2018-01-25T11:25:52.898Z,3.07
2018-01-25T11:28:20.470Z,3.10
2018-01-25T11:30:48.013Z,3.47
2018-01-25T11:33:15.610Z,3.50
2018-01-25T11:35:43.142Z,3.00
2018-01-25T11:38:10.736Z,3.33
2018-01-25T11:40:39.828Z,2.87
2018-01-25T11:43:07.810Z,3.50
2018-01-25T11:45:35.367Z,4.10
2018-01-25T11:48:03.054Z,4.60
2018-01-25T11:50:30.643Z,3.90
2018-01-25T11:52:58.823Z,3.90
2018-01-25T11:55:26.389Z,2.90
2018-01-25T11:57:53.954Z,3.40
2018-01-25T12:00:21.937Z,2.90
2018-01-25T12:02:49.487Z,4.20
2018-01-25T12:05:17.094Z,3.60
2018-01-25T12:07:44.689Z,3.23
2018-01-25T12:10:12.236Z,3.80
2018-01-25T12:12:39.824Z,3.33
2018-01-25T12:15:07.388Z,2.97
2018-01-25T12:17:35.281Z,3.10
2018-01-25T12:20:02.837Z,3.10
2018-01-25T12:22:30.385Z,3.43
2018-01-25T12:24:57.984Z,3.00
2018-01-25T12:27:25.540Z,3.50
2018-01-25T12:29:53.113Z,3.13
2018-01-25T12:32:20.646Z,2.57
2018-01-25T12:34:48.223Z,2.70
2018-01-25T12:37:15.793Z,3.03
2018-01-25T12:39:44.422Z,3.50
2018-01-25T12:42:11.968Z,3.00
2018-01-25T12:44:39.508Z,2.43
2018-01-25T12:47:07.690Z,2.53
2018-01-25T12:49:35.957Z,2.67
2018-01-25T12:52:03.691Z,3.40
2018-01-25T12:54:31.245Z,3.00
2018-01-25T12:56:59.248Z,5.30
2018-01-25T12:59:26.788Z,4.07
2018-01-25T13:01:55.120Z,4.13
2018-01-25T13:04:22.717Z,3.50
2018-01-25T13:06:50.265Z,3.40
2018-01-25T13:09:17.860Z,3.90
2018-01-25T13:11:45.748Z,3.60
2018-01-25T13:14:14.226Z,3.37
2018-01-25T13:16:41.768Z,4.30
2018-01-25T13:19:10.086Z,3.57
2018-01-25T13:21:37.668Z,3.40
2018-01-25T13:24:05.207Z,3.30
2018-01-25T13:26:32.788Z,3.17
2018-01-25T13:29:00.492Z,5.23
2018-01-25T13:31:28.496Z,5.40
2018-01-25T13:33:56.032Z,3.77
2018-01-25T13:36:23.574Z,3.83
2018-01-25T13:38:51.147Z,3.80
2018-01-25T13:41:19.444Z,4.00
2018-01-25T13:43:47.066Z,3.80
2018-01-25T13:46:15.371Z,4.30
2018-01-25T13:48:43.230Z,8.57
2018-01-25T13:51:10.772Z,9.80
2018-01-25T13:53:38.695Z,10.47
2018-01-25T13:56:06.241Z,11.67
2018-01-25T13:58:33.799Z,11.47
2018-01-25T14:01:01.369Z,12.70
2018-01-25T14:03:28.935Z,13.57
2018-01-25T14:05:56.526Z,14.57
2018-01-25T14:08:24.929Z,13.50
2018-01-25T14:10:52.480Z,13.30
2018-01-25T14:13:20.203Z,13.90
2018-01-25T14:15:47.745Z,15.60
2018-01-25T14:18:15.322Z,16.90
2018-01-25T14:20:42.873Z,16.17
2018-01-25T14:23:10.839Z,14.70
2018-01-25T14:25:38.406Z,14.10
2018-01-25T14:28:05.970Z,14.73
2018-01-25T14:30:33.566Z,15.07
2018-01-25T14:33:01.125Z,14.10
2018-01-25T14:35:30.247Z,15.00
2018-01-25T14:37:57.797Z,13.23
2018-01-25T14:40:25.628Z,13.47
2018-01-25T14:42:53.213Z,13.10
2018-01-25T14:45:20.761Z,15.23
2018-01-25T14:47:48.345Z,13.50
2018-01-25T14:50:15.908Z,13.57
2018-01-25T14:52:43.482Z,14.47
2018-01-25T14:55:11.296Z,15.70
2018-01-25T14:57:39.656Z,15.40
2018-01-25T15:00:07.215Z,14.20
2018-01-25T15:02:35.054Z,16.13
2018-01-25T15:05:02.594Z,14.30
2018-01-25T15:07:30.430Z,15.10
2018-01-25T15:09:58.802Z,14.63
2018-01-25T15:12:26.354Z,15.23
2018-01-25T15:14:53.985Z,15.03
2018-01-25T15:17:21.701Z,14.70
2018-01-25T15:19:50.119Z,15.97
2018-01-25T15:22:18.156Z,16.70
2018-01-25T15:24:45.661Z,15.57
2018-01-25T15:27:18.917Z,15.27
2018-01-25T15:29:47.800Z,15.63
2018-01-25T15:32:15.363Z,16.00
2018-01-25T15:34:42.897Z,19.17
2018-01-25T15:37:11.253Z,17.00
2018-01-25T15:39:40.680Z,16.03
2018-01-25T15:42:10.122Z,16.60
2018-01-25T15:44:37.668Z,15.90
2018-01-25T15:47:05.267Z,16.67
2018-01-25T15:49:32.821Z,15.90
2018-01-25T15:52:00.921Z,18.20
2018-01-25T15:54:28.483Z,15.30
2018-01-25T15:56:56.821Z,16.40
2018-01-25T15:59:24.572Z,16.77
2018-01-25T16:01:52.173Z,14.17
2018-01-25T16:04:19.753Z,16.87
2018-01-25T16:06:48.064Z,21.93
2018-01-25T16:09:17.707Z,22.60
2018-01-25T16:11:45.287Z,17.83
2018-01-25T16:14:12.943Z,17.73
2018-01-25T16:16:40.607Z,18.40
2018-01-25T16:19:08.161Z,17.07
2018-01-25T16:21:35.746Z,16.60
2018-01-25T16:24:03.297Z,15.87
2018-01-25T16:26:31.950Z,15.93
2018-01-25T16:28:59.496Z,17.80
2018-01-25T16:31:27.055Z,15.63
2018-01-25T16:33:54.750Z,20.40
2018-01-25T16:36:22.309Z,18.17
2018-01-25T16:38:49.899Z,15.60
2018-01-25T16:41:18.217Z,16.33
2018-01-25T16:43:45.886Z,16.70
2018-01-25T16:46:13.485Z,15.13
2018-01-25T16:48:41.801Z,19.50
2018-01-25T16:51:09.601Z,19.00
2018-01-25T16:53:37.165Z,20.20
2018-01-25T16:56:04.756Z,17.33
2018-01-25T16:58:33.067Z,18.03
2018-01-25T17:01:00.622Z,20.83
2018-01-25T17:03:28.245Z,20.57
2018-01-25T17:05:55.793Z,18.00
2018-01-25T17:08:23.392Z,15.73
2018-01-25T17:10:50.955Z,18.67
2018-01-25T17:13:18.820Z,18.43
2018-01-25T17:15:46.374Z,18.50
2018-01-25T17:18:13.957Z,17.63
2018-01-25T17:20:41.659Z,18.57
2018-01-25T17:23:09.227Z,22.70
2018-01-25T17:25:36.819Z,19.53
2018-01-25T17:28:04.372Z,18.50
2018-01-25T17:30:31.965Z,17.63
2018-01-25T17:32:59.505Z,16.70
2018-01-25T17:35:27.194Z,17.37
2018-01-25T17:37:54.773Z,17.13
2018-01-25T17:40:22.333Z,19.27
2018-01-25T17:42:49.934Z,21.07
2018-01-25T17:45:17.472Z,17.60
2018-01-25T17:47:45.833Z,17.27
2018-01-25T17:50:13.381Z,17.70
2018-01-25T17:52:40.971Z,18.80
2018-01-25T17:55:08.632Z,17.53
2018-01-25T17:57:36.384Z,17.53
2018-01-25T18:00:03.995Z,18.00
2018-01-25T18:02:31.546Z,31.33
2018-01-25T18:04:59.163Z,22.17
2018-01-25T18:07:26.736Z,17.70
2018-01-25T18:09:54.327Z,20.33
2018-01-25T18:12:21.882Z,19.77
2018-01-25T18:14:49.785Z,19.80
2018-01-25T18:17:17.364Z,19.37
2018-01-25T18:19:45.085Z,18.17
2018-01-25T18:22:12.673Z,18.47
2018-01-25T18:24:40.263Z,17.20
2018-01-25T18:27:08.033Z,16.40
2018-01-25T18:29:35.606Z,19.13
2018-01-25T18:32:03.227Z,18.80
2018-01-25T18:34:30.786Z,18.27
2018-01-25T18:36:58.430Z,18.80
2018-01-25T18:39:26.072Z,16.73
2018-01-25T18:41:53.637Z,19.27
2018-01-25T18:44:21.254Z,20.43
2018-01-25T18:46:49.589Z,18.90
2018-01-25T18:49:17.291Z,18.47
2018-01-25T18:51:44.862Z,18.60
2018-01-25T18:54:13.349Z,18.60
2018-01-25T18:56:41.957Z,18.90
2018-01-25T18:59:09.561Z,19.93
2018-01-25T19:01:37.128Z,21.27
2018-01-25T19:04:04.702Z,20.70
2018-01-25T19:06:32.331Z,20.77
2018-01-25T19:08:59.907Z,20.27
2018-01-25T19:11:27.521Z,21.40
2018-01-25T19:13:55.054Z,19.93
2018-01-25T19:16:23.706Z,20.37
2018-01-25T19:18:52.045Z,19.70
2018-01-25T19:21:19.603Z,20.67
2018-01-25T19:23:47.285Z,20.50
2018-01-25T19:26:15.138Z,20.97
2018-01-25T19:28:42.775Z,19.40
2018-01-25T19:31:10.348Z,20.93
2018-01-25T19:33:37.967Z,21.60
2018-01-25T19:36:06.287Z,22.20
2018-01-25T19:38:33.841Z,21.07
2018-01-25T19:41:01.461Z,20.83
2018-01-25T19:43:29.048Z,22.90
2018-01-25T19:45:56.660Z,22.20
2018-01-25T19:48:24.218Z,21.77
2018-01-25T19:50:51.914Z,23.57
2018-01-25T19:53:19.686Z,24.70
2018-01-25T19:55:48.016Z,26.60
2018-01-25T19:58:15.623Z,22.07
2018-01-25T20:00:43.942Z,27.53
2018-01-25T20:03:11.529Z,24.83
2018-01-25T20:05:39.894Z,23.00
2018-01-25T20:08:07.578Z,23.90
2018-01-25T20:10:36.631Z,23.90
2018-01-25T20:13:04.797Z,26.00
2018-01-25T20:15:32.406Z,24.70
2018-01-25T20:17:59.966Z,25.60
2018-01-25T20:20:27.608Z,25.07
2018-01-25T20:22:55.168Z,25.70
2018-01-25T20:25:22.983Z,27.10
2018-01-25T20:27:50.523Z,27.30
2018-01-25T20:30:18.057Z,27.57
2018-01-25T20:32:45.664Z,28.30
2018-01-25T20:35:13.233Z,24.57
2018-01-25T20:37:40.819Z,29.47
2018-01-25T20:40:08.376Z,28.30
2018-01-25T20:42:36.035Z,31.50
2018-01-25T20:45:03.562Z,29.57
2018-01-25T20:47:31.529Z,29.50
2018-01-25T20:49:59.880Z,27.43
2018-01-25T20:52:27.463Z,27.93
2018-01-25T20:54:55.811Z,28.80
2018-01-25T20:57:23.379Z,29.73
2018-01-25T20:59:51.005Z,27.87
2018-01-25T21:02:19.358Z,28.33
2018-01-25T21:04:46.961Z,27.10
2018-01-25T21:07:14.509Z,28.63
2018-01-25T21:09:42.098Z,26.53
2018-01-25T21:12:11.360Z,28.43
2018-01-25T21:14:39.390Z,29.60
2018-01-25T21:17:07.456Z,31.30
2018-01-25T21:19:34.998Z,30.33
2018-01-25T21:22:02.606Z,30.33
2018-01-25T21:24:30.389Z,31.37
2018-01-25T21:26:57.996Z,31.27
2018-01-25T21:29:25.597Z,31.40
2018-01-25T21:31:53.162Z,30.43
2018-01-25T21:34:20.782Z,32.17
2018-01-25T21:36:49.813Z,35.73
2018-01-25T21:39:17.443Z,33.77
2018-01-25T21:41:44.981Z,33.43
2018-01-25T21:44:13.626Z,33.13
2018-01-25T21:46:41.218Z,31.97
2018-01-25T21:49:08.854Z,31.93
2018-01-25T21:51:36.443Z,31.97
2018-01-25T21:54:03.989Z,32.50
2018-01-25T21:56:31.586Z,34.97
2018-01-25T21:59:00.050Z,32.93
2018-01-25T22:01:28.598Z,32.97
2018-01-25T22:03:56.152Z,34.57
2018-01-25T22:06:24.970Z,35.37
2018-01-25T22:08:52.553Z,33.83
2018-01-25T22:11:20.897Z,34.50
2018-01-25T22:13:48.509Z,34.87
2018-01-25T22:16:16.061Z,34.93
2018-01-25T22:18:43.657Z,36.33
2018-01-25T22:21:11.201Z,38.40
2018-01-25T22:23:38.726Z,32.87
2018-01-25T22:26:06.345Z,36.30
2018-01-25T22:28:33.897Z,36.40
2018-01-25T22:31:01.567Z,35.63
2018-01-25T22:33:29.096Z,35.73
2018-01-25T22:35:57.131Z,36.77
2018-01-25T22:38:24.664Z,34.10
2018-01-25T22:40:52.227Z,37.80
2018-01-25T22:43:19.882Z,38.63
2018-01-25T22:45:47.430Z,35.80
2018-01-25T22:48:15.018Z,37.00
2018-01-25T22:50:42.574Z,37.60
2018-01-25T22:53:10.172Z,37.27
2018-01-25T22:55:37.713Z,38.17
2018-01-25T22:58:06.067Z,38.57
2018-01-25T23:00:40.445Z,38.57
2018-01-25T23:03:08.460Z,40.00
2018-01-25T23:05:36.002Z,37.53
2018-01-25T23:08:03.532Z,39.40
2018-01-25T23:10:31.116Z,37.13
2018-01-25T23:12:59.232Z,38.60
2018-01-25T23:15:26.811Z,41.17
2018-01-25T23:17:54.337Z,37.43
2018-01-25T23:20:21.872Z,40.77
2018-01-25T23:22:49.447Z,39.97
2018-01-25T23:25:16.986Z,41.70
2018-01-25T23:27:44.544Z,42.40
2018-01-25T23:30:12.074Z,40.70
2018-01-25T23:32:39.648Z,43.00
2018-01-25T23:35:07.173Z,43.50
2018-01-25T23:37:34.713Z,39.77
2018-01-25T23:40:02.284Z,40.13
2018-01-25T23:42:29.824Z,40.73
2018-01-25T23:44:57.388Z,40.57
2018-01-25T23:47:24.921Z,40.90
2018-01-25T23:49:52.556Z,40.03
2018-01-25T23:52:20.120Z,40.20
2018-01-25T23:54:47.688Z,41.43
2018-01-25T23:57:15.220Z,42.27
2018-01-25T23:59:42.793Z,39.40
